createdAt,value
2019-05-29T00:00:31.881Z,85.30
2019-05-29T00:01:35.393Z,85.13
2019-05-29T00:02:39.489Z,84.92
2019-05-29T00:03:42.946Z,84.72
2019-05-29T00:04:47.072Z,84.88
2019-05-29T00:05:50.586Z,84.41
2019-05-29T00:06:54.687Z,84.34
2019-05-29T00:07:58.213Z,84.26
2019-05-29T00:09:02.241Z,84.24
2019-05-29T00:10:10.371Z,84.23
2019-05-29T00:11:14.548Z,84.12
2019-05-29T00:12:20.132Z,83.94
2019-05-29T00:13:23.778Z,83.93
2019-05-29T00:14:27.842Z,83.86
2019-05-29T00:15:32.014Z,83.58
2019-05-29T00:16:35.536Z,83.72
2019-05-29T00:17:39.573Z,83.83
2019-05-29T00:18:43.090Z,83.85
2019-05-29T00:19:47.161Z,83.81
2019-05-29T00:20:50.621Z,83.40
2019-05-29T00:21:54.729Z,83.74
2019-05-29T00:22:58.171Z,83.96
2019-05-29T00:24:02.200Z,84.36
2019-05-29T00:25:06.632Z,84.53
2019-05-29T00:26:10.798Z,84.68
2019-05-29T00:27:15.537Z,84.66
2019-05-29T00:28:19.728Z,84.64
2019-05-29T00:29:23.242Z,84.62
2019-05-29T00:30:27.514Z,84.54
2019-05-29T00:31:31.069Z,84.32
2019-05-29T00:32:35.175Z,84.09
2019-05-29T00:33:38.747Z,84.05
2019-05-29T00:34:42.914Z,84.12
2019-05-29T00:35:46.523Z,84.19
2019-05-29T00:36:50.561Z,84.33
2019-05-29T00:37:54.065Z,83.93
2019-05-29T00:38:58.174Z,84.05
2019-05-29T00:40:01.652Z,84.19
2019-05-29T00:41:06.743Z,84.37
2019-05-29T00:42:11.081Z,84.42
2019-05-29T00:43:15.533Z,84.45
2019-05-29T00:44:33.536Z,84.38
2019-05-29T00:45:26.979Z,84.42
2019-05-29T00:46:30.488Z,84.41
2019-05-29T00:47:34.589Z,84.56
2019-05-29T00:48:38.265Z,84.67
2019-05-29T00:49:42.294Z,84.71
2019-05-29T00:50:45.769Z,84.78
2019-05-29T00:51:49.880Z,84.92
2019-05-29T00:52:53.465Z,84.95
2019-05-29T00:53:57.569Z,85.02
2019-05-29T00:55:01.010Z,84.84
2019-05-29T00:56:05.196Z,84.96
2019-05-29T00:57:08.772Z,84.92
2019-05-29T00:58:12.880Z,84.81
2019-05-29T00:59:17.373Z,84.78
2019-05-29T01:00:21.680Z,84.55
2019-05-29T01:01:25.209Z,84.39
2019-05-29T01:02:29.252Z,84.19
2019-05-29T01:03:32.756Z,84.11
2019-05-29T01:04:36.860Z,84.17
2019-05-29T01:05:40.378Z,84.28
2019-05-29T01:06:44.429Z,84.44
2019-05-29T01:07:47.942Z,84.57
2019-05-29T01:08:52.059Z,84.62
2019-05-29T01:09:55.493Z,84.61
2019-05-29T01:10:59.596Z,84.47
2019-05-29T01:12:03.212Z,84.74
2019-05-29T01:13:07.430Z,84.84
2019-05-29T01:14:11.070Z,84.82
2019-05-29T01:15:15.787Z,84.83
2019-05-29T01:16:19.631Z,84.78
2019-05-29T01:17:23.724Z,84.81
2019-05-29T01:18:27.182Z,84.87
2019-05-29T01:19:31.324Z,85.01
2019-05-29T01:20:34.958Z,85.08
2019-05-29T01:21:39.073Z,85.00
2019-05-29T01:22:42.534Z,85.06
2019-05-29T01:23:46.610Z,85.09
2019-05-29T01:24:50.053Z,84.96
2019-05-29T01:25:54.150Z,84.88
2019-05-29T01:26:57.694Z,84.81
2019-05-29T01:28:01.810Z,84.77
2019-05-29T01:29:05.317Z,84.95
2019-05-29T01:30:09.757Z,84.83
2019-05-29T01:31:13.631Z,84.81
2019-05-29T01:32:17.715Z,84.87
2019-05-29T01:33:24.561Z,84.76
2019-05-29T01:34:28.065Z,84.61
2019-05-29T01:35:31.605Z,84.58
2019-05-29T01:36:35.767Z,84.87
2019-05-29T01:37:39.246Z,84.94
2019-05-29T01:38:43.358Z,84.70
2019-05-29T01:39:47.578Z,84.67
2019-05-29T01:40:51.602Z,84.64
2019-05-29T01:41:55.056Z,84.69
2019-05-29T01:42:59.175Z,84.69
2019-05-29T01:44:02.790Z,84.69
2019-05-29T01:45:08.856Z,84.61
2019-05-29T01:46:12.377Z,84.43
2019-05-29T01:47:17.404Z,84.41
2019-05-29T01:48:21.598Z,84.59
2019-05-29T01:49:25.824Z,84.79
2019-05-29T01:50:29.412Z,85.06
2019-05-29T01:51:33.195Z,84.84
2019-05-29T01:52:36.650Z,84.56
2019-05-29T01:53:40.758Z,84.68
2019-05-29T01:54:44.340Z,84.50
2019-05-29T01:55:48.439Z,84.32
2019-05-29T01:56:51.961Z,84.11
2019-05-29T01:57:55.986Z,84.10
2019-05-29T01:58:59.446Z,84.11
2019-05-29T02:00:03.856Z,84.22
2019-05-29T02:01:07.554Z,84.26
2019-05-29T02:02:11.649Z,84.39
2019-05-29T02:03:15.789Z,84.49
2019-05-29T02:04:19.922Z,84.71
2019-05-29T02:05:24.123Z,84.60
2019-05-29T02:06:28.291Z,84.50
2019-05-29T02:07:31.771Z,84.37
2019-05-29T02:08:35.821Z,84.17
2019-05-29T02:09:39.892Z,84.11
2019-05-29T02:10:43.991Z,84.02
2019-05-29T02:11:47.433Z,84.27
2019-05-29T02:12:51.533Z,84.30
2019-05-29T02:13:54.997Z,84.39
2019-05-29T02:14:59.034Z,84.38
2019-05-29T02:16:02.543Z,84.29
2019-05-29T02:17:06.711Z,84.31
2019-05-29T02:18:10.168Z,84.22
2019-05-29T02:19:14.227Z,84.04
2019-05-29T02:20:18.987Z,84.17
2019-05-29T02:21:24.163Z,84.05
2019-05-29T02:22:27.632Z,84.32
2019-05-29T02:23:31.730Z,84.56
2019-05-29T02:24:35.289Z,84.57
2019-05-29T02:25:39.366Z,84.50
2019-05-29T02:26:42.984Z,84.38
2019-05-29T02:27:47.003Z,84.35
2019-05-29T02:28:50.462Z,84.38
2019-05-29T02:29:54.608Z,84.16
2019-05-29T02:30:58.119Z,84.24
2019-05-29T02:32:02.277Z,84.16
2019-05-29T02:33:05.853Z,84.18
2019-05-29T02:34:09.956Z,84.04
2019-05-29T02:35:13.764Z,84.27
2019-05-29T02:36:18.042Z,84.39
2019-05-29T02:37:22.261Z,84.40
2019-05-29T02:38:27.183Z,84.40
2019-05-29T02:39:31.356Z,84.36
2019-05-29T02:40:35.577Z,84.19
2019-05-29T02:41:39.335Z,84.32
2019-05-29T02:42:43.393Z,84.27
2019-05-29T02:43:46.839Z,84.40
2019-05-29T02:44:50.939Z,84.44
2019-05-29T02:45:55.436Z,84.28
2019-05-29T02:46:59.612Z,84.21
2019-05-29T02:48:03.132Z,84.17
2019-05-29T02:49:08.126Z,84.09
2019-05-29T02:50:11.730Z,84.06
2019-05-29T02:51:15.861Z,83.91
2019-05-29T02:52:20.097Z,83.86
2019-05-29T02:53:24.546Z,83.84
2019-05-29T02:54:30.005Z,84.06
2019-05-29T02:55:33.849Z,84.14
2019-05-29T02:56:37.380Z,84.15
2019-05-29T02:57:41.455Z,84.13
2019-05-29T02:58:45.216Z,84.08
2019-05-29T02:59:49.498Z,84.26
2019-05-29T03:00:54.693Z,84.26
2019-05-29T03:01:58.823Z,84.34
2019-05-29T03:03:02.374Z,84.53
2019-05-29T03:04:06.489Z,84.53
2019-05-29T03:05:10.401Z,84.52
2019-05-29T03:06:14.743Z,84.53
2019-05-29T03:07:18.365Z,84.56
2019-05-29T03:08:24.638Z,84.73
2019-05-29T03:09:28.440Z,84.75
2019-05-29T03:10:33.165Z,84.74
2019-05-29T03:11:36.723Z,84.82
2019-05-29T03:12:40.828Z,84.85
2019-05-29T03:13:44.394Z,84.75
2019-05-29T03:14:48.424Z,84.78
2019-05-29T03:16:08.619Z,84.74
2019-05-29T03:16:59.222Z,84.57
2019-05-29T03:18:02.726Z,84.79
2019-05-29T03:19:06.774Z,84.84
2019-05-29T03:20:10.568Z,84.90
2019-05-29T03:21:14.691Z,84.80
2019-05-29T03:22:18.110Z,84.82
2019-05-29T03:23:21.955Z,84.92
2019-05-29T03:24:26.666Z,84.91
2019-05-29T03:25:32.486Z,85.02
2019-05-29T03:26:36.202Z,85.05
2019-05-29T03:27:40.276Z,84.97
2019-05-29T03:28:43.837Z,85.02
2019-05-29T03:29:47.930Z,85.04
2019-05-29T03:30:51.544Z,85.09
2019-05-29T03:31:55.678Z,85.10
2019-05-29T03:32:59.109Z,85.02
2019-05-29T03:34:03.253Z,84.99
2019-05-29T03:35:07.118Z,84.92
2019-05-29T03:36:11.289Z,85.07
2019-05-29T03:37:14.826Z,85.21
2019-05-29T03:38:18.858Z,85.21
2019-05-29T03:39:22.302Z,85.27
2019-05-29T03:40:27.125Z,85.26
2019-05-29T03:41:32.737Z,85.21
2019-05-29T03:42:39.063Z,85.13
2019-05-29T03:43:42.567Z,85.04
2019-05-29T03:44:46.599Z,85.10
2019-05-29T03:45:50.120Z,85.12
2019-05-29T03:46:54.165Z,85.11
2019-05-29T03:47:57.633Z,85.01
2019-05-29T03:49:01.669Z,84.86
2019-05-29T03:50:08.130Z,84.81
2019-05-29T03:51:12.237Z,84.85
2019-05-29T03:52:15.838Z,84.93
2019-05-29T03:53:19.890Z,84.97
2019-05-29T03:54:23.421Z,84.99
2019-05-29T03:55:29.120Z,85.13
2019-05-29T03:56:34.644Z,85.00
2019-05-29T03:57:38.685Z,84.95
2019-05-29T03:58:42.128Z,85.06
2019-05-29T03:59:46.227Z,85.05
2019-05-29T04:00:49.946Z,84.97
2019-05-29T04:01:53.952Z,85.08
2019-05-29T04:02:57.470Z,85.13
2019-05-29T04:04:01.500Z,85.09
2019-05-29T04:05:06.500Z,84.94
2019-05-29T04:06:10.604Z,84.85
2019-05-29T04:07:14.070Z,84.90
2019-05-29T04:08:18.108Z,84.80
2019-05-29T04:09:21.556Z,84.80
2019-05-29T04:10:32.955Z,84.74
2019-05-29T04:11:37.927Z,84.81
2019-05-29T04:12:42.422Z,84.88
2019-05-29T04:13:45.931Z,84.99
2019-05-29T04:14:50.137Z,85.01
2019-05-29T04:15:55.324Z,84.92
2019-05-29T04:17:02.041Z,84.87
2019-05-29T04:18:06.992Z,84.75
2019-05-29T04:19:12.885Z,84.76
2019-05-29T04:20:16.474Z,84.72
2019-05-29T04:21:21.954Z,84.62
2019-05-29T04:22:30.278Z,84.67
2019-05-29T04:23:36.266Z,84.68
2019-05-29T04:24:42.970Z,84.67
2019-05-29T04:25:49.327Z,84.66
2019-05-29T04:26:54.560Z,84.64
2019-05-29T04:28:00.146Z,84.63
2019-05-29T04:29:04.243Z,84.50
2019-05-29T04:30:08.708Z,84.59
2019-05-29T04:31:12.239Z,84.59
2019-05-29T04:32:16.369Z,84.67
2019-05-29T04:33:19.824Z,84.70
2019-05-29T04:34:23.863Z,84.81
2019-05-29T04:35:28.286Z,84.88
2019-05-29T04:36:32.891Z,84.73
2019-05-29T04:37:37.648Z,84.70
2019-05-29T04:38:42.727Z,84.73
2019-05-29T04:39:46.243Z,84.79
2019-05-29T04:40:50.346Z,84.79
2019-05-29T04:41:53.884Z,84.72
2019-05-29T04:42:57.952Z,84.54
2019-05-29T04:44:01.397Z,84.53
2019-05-29T04:45:08.699Z,84.43
2019-05-29T04:46:12.313Z,84.52
2019-05-29T04:47:16.335Z,84.53
2019-05-29T04:48:19.899Z,84.43
2019-05-29T04:49:24.015Z,84.41
2019-05-29T04:50:29.016Z,84.37
2019-05-29T04:51:33.339Z,84.38
2019-05-29T04:52:37.904Z,84.49
2019-05-29T04:53:42.753Z,84.50
2019-05-29T04:54:46.291Z,84.37
2019-05-29T04:55:50.391Z,84.24
2019-05-29T04:56:53.846Z,84.32
2019-05-29T04:57:58.070Z,84.37
2019-05-29T04:59:01.586Z,84.37
2019-05-29T05:00:07.263Z,84.36
2019-05-29T05:01:10.727Z,84.39
2019-05-29T05:02:16.752Z,84.28
2019-05-29T05:03:19.924Z,84.16
2019-05-29T05:04:24.058Z,84.05
2019-05-29T05:05:27.508Z,83.97
2019-05-29T05:06:31.597Z,83.84
2019-05-29T05:07:35.391Z,83.85
2019-05-29T05:08:39.764Z,83.88
2019-05-29T05:09:43.564Z,83.73
2019-05-29T05:10:47.746Z,83.75
2019-05-29T05:11:51.718Z,83.81
2019-05-29T05:12:55.767Z,83.98
2019-05-29T05:14:01.581Z,84.01
2019-05-29T05:15:06.206Z,83.96
2019-05-29T05:16:09.682Z,83.93
2019-05-29T05:17:25.650Z,83.87
2019-05-29T05:18:19.090Z,83.80
2019-05-29T05:19:23.229Z,83.68
2019-05-29T05:20:26.674Z,83.74
2019-05-29T05:21:31.876Z,83.81
2019-05-29T05:22:36.361Z,83.62
2019-05-29T05:23:40.776Z,83.56
2019-05-29T05:24:44.337Z,83.58
2019-05-29T05:25:48.368Z,83.54
2019-05-29T05:26:51.903Z,83.39
2019-05-29T05:27:55.933Z,83.38
2019-05-29T05:28:59.409Z,83.39
2019-05-29T05:30:03.592Z,83.38
2019-05-29T05:31:07.042Z,83.38
2019-05-29T05:32:11.080Z,83.28
2019-05-29T05:33:14.538Z,83.26
2019-05-29T05:34:18.598Z,83.22
2019-05-29T05:35:22.132Z,83.08
2019-05-29T05:36:26.160Z,82.94
2019-05-29T05:37:30.620Z,83.00
2019-05-29T05:38:34.735Z,82.59
2019-05-29T05:39:39.069Z,82.27
2019-05-29T05:40:43.403Z,81.98
2019-05-29T05:41:47.018Z,82.07
2019-05-29T05:42:51.124Z,81.93
2019-05-29T05:43:54.642Z,81.50
2019-05-29T05:44:58.719Z,81.29
2019-05-29T05:46:02.201Z,81.08
2019-05-29T05:47:06.307Z,80.99
2019-05-29T05:48:09.748Z,80.99
2019-05-29T05:49:13.866Z,81.01
2019-05-29T05:50:17.662Z,81.00
2019-05-29T05:51:21.690Z,80.77
2019-05-29T05:52:25.225Z,80.63
2019-05-29T05:53:29.261Z,80.63
2019-05-29T05:54:33.393Z,80.56
2019-05-29T05:55:37.728Z,80.40
2019-05-29T05:56:41.808Z,80.42
2019-05-29T05:57:45.997Z,80.36
2019-05-29T05:58:49.428Z,79.99
2019-05-29T05:59:53.489Z,79.99
2019-05-29T06:00:56.997Z,80.19
2019-05-29T06:02:01.393Z,80.24
2019-05-29T06:03:05.934Z,80.26
2019-05-29T06:04:10.217Z,80.10
2019-05-29T06:05:14.327Z,80.03
2019-05-29T06:06:18.300Z,80.08
2019-05-29T06:07:22.062Z,80.02
2019-05-29T06:08:26.044Z,79.86
2019-05-29T06:09:29.831Z,79.69
2019-05-29T06:10:34.164Z,79.65
2019-05-29T06:11:38.332Z,79.62
2019-05-29T06:12:42.847Z,79.62
2019-05-29T06:13:46.562Z,79.63
2019-05-29T06:14:50.944Z,79.51
2019-05-29T06:15:54.672Z,79.50
2019-05-29T06:16:58.913Z,79.67
2019-05-29T06:18:20.013Z,79.84
2019-05-29T06:19:08.516Z,79.81
2019-05-29T06:20:12.413Z,79.79
2019-05-29T06:21:16.569Z,79.69
2019-05-29T06:22:20.092Z,79.55
2019-05-29T06:23:24.668Z,79.47
2019-05-29T06:24:28.391Z,79.31
2019-05-29T06:25:33.915Z,79.33
2019-05-29T06:26:38.882Z,79.37
2019-05-29T06:27:43.434Z,79.47
2019-05-29T06:28:46.901Z,79.46
2019-05-29T06:29:51.034Z,79.42
2019-05-29T06:30:54.674Z,79.41
2019-05-29T06:31:58.808Z,79.39
2019-05-29T06:33:02.252Z,79.32
2019-05-29T06:34:06.378Z,79.52
2019-05-29T06:35:10.089Z,79.70
2019-05-29T06:36:14.241Z,79.91
2019-05-29T06:37:17.701Z,79.77
2019-05-29T06:38:21.732Z,79.67
2019-05-29T06:39:25.201Z,79.69
2019-05-29T06:40:42.099Z,79.56
2019-05-29T06:41:45.753Z,79.32
2019-05-29T06:42:49.866Z,79.06
2019-05-29T06:43:53.323Z,78.94
2019-05-29T06:44:58.409Z,78.92
2019-05-29T06:46:02.123Z,78.83
2019-05-29T06:47:06.163Z,78.74
2019-05-29T06:48:09.794Z,78.67
2019-05-29T06:49:13.910Z,78.70
2019-05-29T06:50:17.531Z,78.68
2019-05-29T06:51:21.575Z,78.72
2019-05-29T06:52:25.113Z,78.62
2019-05-29T06:53:29.328Z,78.46
2019-05-29T06:54:32.841Z,78.41
2019-05-29T06:55:37.919Z,78.34
2019-05-29T06:56:41.769Z,78.09
2019-05-29T06:57:45.764Z,77.67
2019-05-29T06:58:49.245Z,77.68
2019-05-29T06:59:53.276Z,77.68
2019-05-29T07:00:56.859Z,77.65
2019-05-29T07:02:00.948Z,77.68
2019-05-29T07:03:04.640Z,77.37
2019-05-29T07:04:12.318Z,77.35
2019-05-29T07:05:14.084Z,77.35
2019-05-29T07:06:18.285Z,77.18
2019-05-29T07:07:21.799Z,77.04
2019-05-29T07:08:38.414Z,77.15
2019-05-29T07:09:31.074Z,77.00
2019-05-29T07:10:36.418Z,76.77
2019-05-29T07:11:41.247Z,76.42
2019-05-29T07:12:46.485Z,76.43
2019-05-29T07:13:50.709Z,76.10
2019-05-29T07:14:54.976Z,75.97
2019-05-29T07:15:58.566Z,75.72
2019-05-29T07:17:02.603Z,75.47
2019-05-29T07:18:06.059Z,75.31
2019-05-29T07:19:24.794Z,75.24
2019-05-29T07:20:15.912Z,75.12
2019-05-29T07:21:20.039Z,74.89
2019-05-29T07:22:23.666Z,74.65
2019-05-29T07:23:27.729Z,74.79
2019-05-29T07:24:31.535Z,74.96
2019-05-29T07:25:36.810Z,75.07
2019-05-29T07:26:41.069Z,74.74
2019-05-29T07:27:45.182Z,74.71
2019-05-29T07:29:07.320Z,74.80
2019-05-29T07:29:54.391Z,74.48
2019-05-29T07:31:02.645Z,73.91
2019-05-29T07:32:03.717Z,73.76
2019-05-29T07:33:07.261Z,73.85
2019-05-29T07:34:11.265Z,74.03
2019-05-29T07:35:15.711Z,73.92
2019-05-29T07:36:19.841Z,73.83
2019-05-29T07:37:23.301Z,74.00
2019-05-29T07:38:27.336Z,73.91
2019-05-29T07:39:30.790Z,73.81
2019-05-29T07:40:35.966Z,74.04
2019-05-29T07:41:39.670Z,74.19
2019-05-29T07:42:49.775Z,74.12
2019-05-29T07:43:48.925Z,73.82
2019-05-29T07:44:53.099Z,73.68
2019-05-29T07:45:56.599Z,73.68
2019-05-29T07:47:01.998Z,73.26
2019-05-29T07:48:05.788Z,73.27
2019-05-29T07:49:09.843Z,73.86
2019-05-29T07:50:13.506Z,74.17
2019-05-29T07:51:17.562Z,73.62
2019-05-29T07:52:21.157Z,72.78
2019-05-29T07:53:25.198Z,72.75
2019-05-29T07:54:28.732Z,72.21
2019-05-29T07:55:32.834Z,72.32
2019-05-29T07:56:36.334Z,72.40
2019-05-29T07:57:40.873Z,72.29
2019-05-29T07:58:56.731Z,72.20
2019-05-29T07:59:50.348Z,71.80
2019-05-29T08:01:11.722Z,71.96
2019-05-29T08:01:59.785Z,72.04
2019-05-29T08:03:03.384Z,72.05
2019-05-29T08:04:07.508Z,72.18
2019-05-29T08:05:11.379Z,72.27
2019-05-29T08:06:15.684Z,72.29
2019-05-29T08:07:19.169Z,72.06
2019-05-29T08:08:23.216Z,71.62
2019-05-29T08:09:26.707Z,71.59
2019-05-29T08:10:30.802Z,71.55
2019-05-29T08:11:34.342Z,71.08
2019-05-29T08:12:43.883Z,70.53
2019-05-29T08:13:43.826Z,70.44
2019-05-29T08:14:47.978Z,70.42
2019-05-29T08:16:01.830Z,70.25
2019-05-29T08:16:57.201Z,70.36
2019-05-29T08:18:00.692Z,70.31
2019-05-29T08:19:07.982Z,70.32
2019-05-29T08:20:10.304Z,70.29
2019-05-29T08:21:14.465Z,70.51
2019-05-29T08:22:33.354Z,70.09
2019-05-29T08:23:23.730Z,70.15
2019-05-29T08:24:27.431Z,70.37
2019-05-29T08:25:31.916Z,70.43
2019-05-29T08:26:35.362Z,70.42
2019-05-29T08:27:40.577Z,70.54
2019-05-29T08:28:44.777Z,70.63
2019-05-29T08:29:48.966Z,70.66
2019-05-29T08:30:56.184Z,70.61
2019-05-29T08:31:58.290Z,70.28
2019-05-29T08:33:01.731Z,70.19
2019-05-29T08:34:05.888Z,70.34
2019-05-29T08:35:09.472Z,70.41
2019-05-29T08:36:13.562Z,70.49
2019-05-29T08:37:17.082Z,70.17
2019-05-29T08:38:21.129Z,70.37
2019-05-29T08:39:35.134Z,70.15
2019-05-29T08:40:30.210Z,70.14
2019-05-29T08:41:33.803Z,70.13
2019-05-29T08:42:38.182Z,70.13
2019-05-29T08:43:42.489Z,70.21
2019-05-29T08:44:47.975Z,70.16
2019-05-29T08:45:52.645Z,70.02
2019-05-29T08:47:09.065Z,70.03
2019-05-29T08:48:02.021Z,69.61
2019-05-29T08:49:06.132Z,67.78
2019-05-29T08:50:18.168Z,68.15
2019-05-29T08:51:15.478Z,68.25
2019-05-29T08:52:18.991Z,68.51
2019-05-29T08:53:23.182Z,68.63
2019-05-29T08:54:26.674Z,68.68
2019-05-29T08:55:30.730Z,68.56
2019-05-29T08:56:34.312Z,68.59
2019-05-29T08:57:38.491Z,68.92
2019-05-29T08:58:42.883Z,68.92
2019-05-29T08:59:46.977Z,68.76
2019-05-29T09:00:54.782Z,68.84
2019-05-29T09:01:56.350Z,67.96
2019-05-29T09:02:59.863Z,67.75
2019-05-29T09:04:04.140Z,67.39
2019-05-29T09:05:08.156Z,67.80
2019-05-29T09:06:13.671Z,67.98
2019-05-29T09:07:17.416Z,67.84
2019-05-29T09:08:21.476Z,67.88
2019-05-29T09:09:25.069Z,67.84
2019-05-29T09:10:29.169Z,67.90
2019-05-29T09:11:32.625Z,68.05
2019-05-29T09:12:36.657Z,67.70
2019-05-29T09:13:40.171Z,67.38
2019-05-29T09:14:44.283Z,67.65
2019-05-29T09:15:47.815Z,67.76
2019-05-29T09:16:51.976Z,67.31
2019-05-29T09:17:55.565Z,67.23
2019-05-29T09:18:59.583Z,67.13
2019-05-29T09:20:03.348Z,67.17
2019-05-29T09:21:08.979Z,67.05
2019-05-29T09:22:13.853Z,67.15
2019-05-29T09:23:18.927Z,66.43
2019-05-29T09:24:23.078Z,66.36
2019-05-29T09:25:27.792Z,66.16
2019-05-29T09:26:31.330Z,66.05
2019-05-29T09:27:35.379Z,66.02
2019-05-29T09:28:38.821Z,65.90
2019-05-29T09:29:42.899Z,65.83
2019-05-29T09:30:46.466Z,65.88
2019-05-29T09:31:50.497Z,65.82
2019-05-29T09:32:57.107Z,65.74
2019-05-29T09:34:01.270Z,65.14
2019-05-29T09:35:05.173Z,65.42
2019-05-29T09:36:09.425Z,65.27
2019-05-29T09:37:14.186Z,65.22
2019-05-29T09:38:18.953Z,65.49
2019-05-29T09:39:22.819Z,65.60
2019-05-29T09:40:26.994Z,65.61
2019-05-29T09:41:30.441Z,65.76
2019-05-29T09:42:34.484Z,65.79
2019-05-29T09:43:38.008Z,65.93
2019-05-29T09:44:42.147Z,65.85
2019-05-29T09:45:46.272Z,65.76
2019-05-29T09:46:50.368Z,65.77
2019-05-29T09:47:53.903Z,65.77
2019-05-29T09:49:01.320Z,65.86
2019-05-29T09:50:04.832Z,65.79
2019-05-29T09:51:20.678Z,65.79
2019-05-29T09:52:14.133Z,65.83
2019-05-29T09:53:18.302Z,65.54
2019-05-29T09:54:21.870Z,65.72
2019-05-29T09:55:26.042Z,65.55
2019-05-29T09:56:29.503Z,65.58
2019-05-29T09:57:33.574Z,65.44
2019-05-29T09:58:37.085Z,65.33
2019-05-29T09:59:41.128Z,65.40
2019-05-29T10:00:44.792Z,65.23
2019-05-29T10:01:48.821Z,65.19
2019-05-29T10:02:52.827Z,65.23
2019-05-29T10:04:00.020Z,64.84
2019-05-29T10:05:04.169Z,64.24
2019-05-29T10:06:09.455Z,63.58
2019-05-29T10:07:13.056Z,63.77
2019-05-29T10:08:17.203Z,64.00
2019-05-29T10:09:20.764Z,64.14
2019-05-29T10:10:25.239Z,63.58
2019-05-29T10:11:28.945Z,63.31
2019-05-29T10:12:32.967Z,62.11
2019-05-29T10:13:36.404Z,62.23
2019-05-29T10:14:40.515Z,62.71
2019-05-29T10:15:44.129Z,62.28
2019-05-29T10:16:49.048Z,62.36
2019-05-29T10:17:52.561Z,62.40
2019-05-29T10:18:58.497Z,62.10
2019-05-29T10:20:03.285Z,62.26
2019-05-29T10:21:07.495Z,62.01
2019-05-29T10:22:10.978Z,62.14
2019-05-29T10:23:15.005Z,62.40
2019-05-29T10:24:18.457Z,62.99
2019-05-29T10:25:22.363Z,63.04
2019-05-29T10:26:25.878Z,62.42
2019-05-29T10:27:29.998Z,62.59
2019-05-29T10:28:49.905Z,62.50
2019-05-29T10:29:39.199Z,62.50
2019-05-29T10:30:44.258Z,62.48
2019-05-29T10:31:49.798Z,62.15
2019-05-29T10:32:53.919Z,61.89
2019-05-29T10:33:58.062Z,61.26
2019-05-29T10:35:01.579Z,61.45
2019-05-29T10:36:05.882Z,61.08
2019-05-29T10:37:09.341Z,61.22
2019-05-29T10:38:13.544Z,62.13
2019-05-29T10:39:17.059Z,62.64
2019-05-29T10:40:21.801Z,62.12
2019-05-29T10:41:25.246Z,62.07
2019-05-29T10:42:29.340Z,62.26
2019-05-29T10:43:34.559Z,62.26
2019-05-29T10:44:38.623Z,61.81
2019-05-29T10:45:43.453Z,61.87
2019-05-29T10:46:50.005Z,61.95
2019-05-29T10:47:54.091Z,62.25
2019-05-29T10:48:58.214Z,62.06
2019-05-29T10:50:01.889Z,62.30
2019-05-29T10:51:06.140Z,62.67
2019-05-29T10:52:15.534Z,62.54
2019-05-29T10:53:15.592Z,61.86
2019-05-29T10:54:19.198Z,61.91
2019-05-29T10:55:24.394Z,62.08
2019-05-29T10:56:27.820Z,62.01
2019-05-29T10:57:31.851Z,61.71
2019-05-29T10:58:48.409Z,61.23
2019-05-29T10:59:41.161Z,61.17
2019-05-29T11:00:45.412Z,61.29
2019-05-29T11:01:49.506Z,60.26
2019-05-29T11:02:55.451Z,59.64
2019-05-29T11:03:59.098Z,58.80
2019-05-29T11:05:02.660Z,58.96
2019-05-29T11:06:06.849Z,59.33
2019-05-29T11:07:10.375Z,59.09
2019-05-29T11:08:14.399Z,59.12
2019-05-29T11:09:17.940Z,58.85
2019-05-29T11:10:22.803Z,58.40
2019-05-29T11:11:26.254Z,58.47
2019-05-29T11:12:30.420Z,58.59
2019-05-29T11:13:34.011Z,58.45
2019-05-29T11:14:39.380Z,57.97
2019-05-29T11:15:42.953Z,58.23
2019-05-29T11:16:47.077Z,58.43
2019-05-29T11:17:51.419Z,58.74
2019-05-29T11:18:55.788Z,58.98
2019-05-29T11:19:59.584Z,58.29
2019-05-29T11:21:03.600Z,57.34
2019-05-29T11:22:25.263Z,57.12
2019-05-29T11:23:13.034Z,56.96
2019-05-29T11:24:16.532Z,55.86
2019-05-29T11:25:26.744Z,56.13
2019-05-29T11:26:26.673Z,56.19
2019-05-29T11:27:30.948Z,57.33
2019-05-29T11:28:34.496Z,57.64
2019-05-29T11:29:38.530Z,57.03
2019-05-29T11:30:41.993Z,56.78
2019-05-29T11:31:46.025Z,55.29
2019-05-29T11:32:52.545Z,55.36
2019-05-29T11:33:57.146Z,54.99
2019-05-29T11:35:02.243Z,54.85
2019-05-29T11:36:12.348Z,55.03
2019-05-29T11:37:11.736Z,54.48
2019-05-29T11:38:15.838Z,54.01
2019-05-29T11:39:19.447Z,53.98
2019-05-29T11:40:23.636Z,53.55
2019-05-29T11:41:27.191Z,53.02
2019-05-29T11:42:31.354Z,53.42
2019-05-29T11:43:34.868Z,53.62
2019-05-29T11:44:40.397Z,53.38
2019-05-29T11:45:43.922Z,53.11
2019-05-29T11:46:48.196Z,52.91
2019-05-29T11:47:53.703Z,52.92
2019-05-29T11:48:57.494Z,52.93
2019-05-29T11:50:16.191Z,53.19
2019-05-29T11:51:06.991Z,52.26
2019-05-29T11:52:23.556Z,51.88
2019-05-29T11:53:16.401Z,51.84
2019-05-29T11:54:20.001Z,51.67
2019-05-29T11:55:24.175Z,52.31
2019-05-29T11:56:27.670Z,53.04
2019-05-29T11:57:31.775Z,53.09
2019-05-29T11:58:35.286Z,51.97
2019-05-29T11:59:39.392Z,52.25
2019-05-29T12:00:43.119Z,51.74
2019-05-29T12:01:50.712Z,51.32
2019-05-29T12:02:53.922Z,50.80
2019-05-29T12:04:18.700Z,50.88
2019-05-29T12:05:05.832Z,51.01
2019-05-29T12:06:10.038Z,51.82
2019-05-29T12:07:13.624Z,51.42
2019-05-29T12:08:17.648Z,51.99
2019-05-29T12:09:31.915Z,51.71
2019-05-29T12:10:27.177Z,51.19
2019-05-29T12:11:30.624Z,50.84
2019-05-29T12:12:34.725Z,50.00
2019-05-29T12:13:39.395Z,50.85
2019-05-29T12:14:58.966Z,51.61
2019-05-29T12:15:48.709Z,52.02
2019-05-29T12:16:54.177Z,52.05
2019-05-29T12:18:19.099Z,52.42
2019-05-29T12:19:03.781Z,52.70
2019-05-29T12:20:26.401Z,52.29
2019-05-29T12:21:13.905Z,51.93
2019-05-29T12:22:17.481Z,52.50
2019-05-29T12:23:26.151Z,51.55
2019-05-29T12:24:26.699Z,51.49
2019-05-29T12:25:30.878Z,51.92
2019-05-29T12:26:34.313Z,52.10
2019-05-29T12:27:38.357Z,52.01
2019-05-29T12:28:41.857Z,51.88
2019-05-29T12:29:45.922Z,51.18
2019-05-29T12:30:49.537Z,51.20
2019-05-29T12:31:54.825Z,51.70
2019-05-29T12:32:59.167Z,52.23
2019-05-29T12:34:13.106Z,52.72
2019-05-29T12:35:09.365Z,52.80
2019-05-29T12:36:13.599Z,52.39
2019-05-29T12:37:18.687Z,52.51
2019-05-29T12:38:22.708Z,51.75
2019-05-29T12:39:26.319Z,52.37
2019-05-29T12:40:30.421Z,52.37
2019-05-29T12:41:36.592Z,52.80
2019-05-29T12:42:44.617Z,52.74
2019-05-29T12:43:47.302Z,52.93
2019-05-29T12:44:51.445Z,53.45
2019-05-29T12:45:55.659Z,53.84
2019-05-29T12:46:59.866Z,54.37
2019-05-29T12:48:11.101Z,55.30
2019-05-29T12:49:09.649Z,55.55
2019-05-29T12:50:15.188Z,56.64
2019-05-29T12:51:19.286Z,57.18
2019-05-29T12:52:22.824Z,57.27
2019-05-29T12:53:30.774Z,57.57
2019-05-29T12:54:32.233Z,57.68
2019-05-29T12:55:36.493Z,57.95
2019-05-29T12:56:39.910Z,58.75
2019-05-29T12:57:44.013Z,59.05
2019-05-29T12:58:47.600Z,59.11
2019-05-29T12:59:51.718Z,59.53
2019-05-29T13:00:56.417Z,59.73
2019-05-29T13:02:00.677Z,60.21
2019-05-29T13:03:05.330Z,60.57
2019-05-29T13:04:09.578Z,60.81
2019-05-29T13:05:20.171Z,61.02
2019-05-29T13:06:20.936Z,61.53
2019-05-29T13:07:24.542Z,62.02
2019-05-29T13:08:28.580Z,62.51
2019-05-29T13:09:32.164Z,63.15
2019-05-29T13:10:36.345Z,63.70
2019-05-29T13:11:39.894Z,64.72
2019-05-29T13:12:44.211Z,64.89
2019-05-29T13:13:47.816Z,65.31
2019-05-29T13:14:51.874Z,65.61
2019-05-29T13:15:56.609Z,66.27
2019-05-29T13:17:03.029Z,66.44
2019-05-29T13:18:10.182Z,65.82
2019-05-29T13:19:12.809Z,65.24
2019-05-29T13:20:21.821Z,64.70
2019-05-29T13:21:22.587Z,63.70
2019-05-29T13:22:26.039Z,63.30
2019-05-29T13:23:44.313Z,63.12
2019-05-29T13:24:35.256Z,62.92
2019-05-29T13:25:39.369Z,62.97
2019-05-29T13:26:43.010Z,62.25
2019-05-29T13:27:47.038Z,62.28
2019-05-29T13:28:50.482Z,62.51
2019-05-29T13:29:58.129Z,62.55
2019-05-29T13:30:59.849Z,62.33
2019-05-29T13:32:05.392Z,62.39
2019-05-29T13:33:09.379Z,62.73
2019-05-29T13:34:13.527Z,62.84
2019-05-29T13:35:21.878Z,62.69
2019-05-29T13:36:24.118Z,62.91
2019-05-29T13:37:27.594Z,62.64
2019-05-29T13:38:31.710Z,62.47
2019-05-29T13:39:35.196Z,62.59
2019-05-29T13:40:39.366Z,62.22
2019-05-29T13:41:42.828Z,62.45
2019-05-29T13:42:46.929Z,62.46
2019-05-29T13:43:50.468Z,62.24
2019-05-29T13:44:54.741Z,62.13
2019-05-29T13:45:58.436Z,62.46
2019-05-29T13:47:04.087Z,62.84